createdAt,value
2022-11-28T04:50:44.782Z,21.97
2022-11-28T04:53:19.811Z,22.33
2022-11-28T04:55:52.873Z,24.17
2022-11-28T04:58:26.456Z,21.70
2022-11-28T05:00:56.931Z,19.60
2022-11-28T05:03:29.080Z,20.77
2022-11-28T05:05:59.308Z,23.30
2022-11-28T05:08:27.738Z,22.90
2022-11-28T05:10:56.525Z,19.30
2022-11-28T05:13:24.974Z,19.33
2022-11-28T05:15:53.558Z,20.70
2022-11-28T05:18:22.356Z,23.87
2022-11-28T05:20:50.849Z,21.67
2022-11-28T05:23:20.713Z,19.73
2022-11-28T05:25:49.072Z,22.93
2022-11-28T05:28:17.523Z,19.30
2022-11-28T05:30:46.197Z,22.77
2022-11-28T05:33:14.578Z,19.77
2022-11-28T05:35:43.102Z,27.13
2022-11-28T05:38:13.676Z,22.83
2022-11-28T05:40:44.831Z,18.97
2022-11-28T05:43:13.638Z,20.53
2022-11-28T05:45:42.533Z,23.23
2022-11-28T05:48:11.006Z,18.93
2022-11-28T05:50:41.630Z,18.23
2022-11-28T05:53:11.362Z,20.63
2022-11-28T05:55:41.447Z,20.40
2022-11-28T05:58:11.857Z,20.80
2022-11-28T06:00:40.539Z,19.60
2022-11-28T06:03:09.071Z,19.00
2022-11-28T06:05:43.303Z,22.83
2022-11-28T06:08:13.590Z,20.87
2022-11-28T06:10:42.290Z,21.37
2022-11-28T06:13:12.009Z,18.03
2022-11-28T06:15:45.007Z,20.07
2022-11-28T06:18:13.414Z,22.30
2022-11-28T06:20:41.821Z,22.83
2022-11-28T06:23:10.271Z,23.37
2022-11-28T06:25:38.706Z,21.53
2022-11-28T06:28:07.088Z,22.37
2022-11-28T06:30:37.120Z,22.53
2022-11-28T06:33:05.616Z,25.37
2022-11-28T06:35:34.924Z,19.57
2022-11-28T06:38:03.444Z,20.97
2022-11-28T06:40:32.437Z,21.87
2022-11-28T06:43:00.804Z,22.87
2022-11-28T06:45:29.440Z,24.07
2022-11-28T06:48:00.024Z,24.97
2022-11-28T06:50:28.501Z,22.70
2022-11-28T06:52:57.358Z,19.57
2022-11-28T06:55:25.883Z,23.60
2022-11-28T06:57:54.271Z,22.93
2022-11-28T07:00:22.729Z,21.93
2022-11-28T07:02:51.430Z,24.33
2022-11-28T07:05:27.824Z,22.57
2022-11-28T07:07:58.491Z,22.47
2022-11-28T07:10:29.056Z,21.27
2022-11-28T07:13:02.405Z,22.40
2022-11-28T07:15:33.580Z,25.77
2022-11-28T07:18:02.103Z,25.43
2022-11-28T07:20:31.834Z,24.00
2022-11-28T07:23:00.089Z,20.77
2022-11-28T07:25:28.442Z,22.40
2022-11-28T07:27:56.817Z,28.27
2022-11-28T07:30:25.274Z,23.57
2022-11-28T07:32:53.916Z,25.33
2022-11-28T07:35:22.482Z,19.77
2022-11-28T07:37:53.606Z,22.63
2022-11-28T07:40:23.285Z,23.33
2022-11-28T07:42:52.121Z,28.47
2022-11-28T07:45:20.715Z,23.07
2022-11-28T07:47:50.236Z,25.67
2022-11-28T07:50:19.353Z,28.40
2022-11-28T07:52:49.920Z,23.40
2022-11-28T07:55:19.893Z,126.07
2022-11-28T07:57:48.272Z,29.30
2022-11-28T08:00:18.318Z,23.67
2022-11-28T08:02:46.809Z,25.00
2022-11-28T08:05:15.319Z,27.90
2022-11-28T08:07:44.118Z,28.30
2022-11-28T08:10:12.671Z,24.53
2022-11-28T08:12:42.516Z,23.67
2022-11-28T08:15:13.203Z,28.33
2022-11-28T08:17:41.630Z,27.23
2022-11-28T08:20:10.959Z,30.43
2022-11-28T08:22:39.421Z,32.00
2022-11-28T08:25:08.467Z,27.73
2022-11-28T08:27:36.833Z,29.63
2022-11-28T08:30:08.235Z,26.07
2022-11-28T08:32:36.582Z,24.00
2022-11-28T08:35:05.301Z,26.60
2022-11-28T08:37:33.944Z,26.43
2022-11-28T08:40:02.429Z,25.20
2022-11-28T08:42:30.883Z,27.90
2022-11-28T08:44:59.394Z,23.93
2022-11-28T08:47:29.411Z,27.17
2022-11-28T08:49:57.866Z,23.97
2022-11-28T08:52:26.603Z,25.23
2022-11-28T08:54:56.432Z,27.23
2022-11-28T08:57:24.943Z,23.80
2022-11-28T08:59:53.454Z,25.23
2022-11-28T09:02:25.942Z,28.00
2022-11-28T09:04:56.077Z,25.40
2022-11-28T09:07:24.711Z,24.47
2022-11-28T09:09:53.323Z,27.57
2022-11-28T09:12:21.802Z,27.07
2022-11-28T09:14:50.370Z,28.80
2022-11-28T09:17:18.857Z,22.33
2022-11-28T09:19:47.387Z,30.00
2022-11-28T09:22:17.307Z,27.97
2022-11-28T09:24:45.957Z,24.67
2022-11-28T09:27:14.677Z,23.37
2022-11-28T09:29:43.997Z,24.50
2022-11-28T09:32:12.903Z,24.53
2022-11-28T09:34:41.429Z,25.60
2022-11-28T09:37:09.991Z,25.10
2022-11-28T09:40:04.759Z,27.63
2022-11-28T09:42:33.562Z,25.83
2022-11-28T09:45:06.317Z,24.93
2022-11-28T09:47:38.019Z,25.70
2022-11-28T09:50:11.007Z,38.27
2022-11-28T09:52:46.444Z,28.07
2022-11-28T09:55:22.343Z,24.27
2022-11-28T09:57:52.481Z,29.43
2022-11-28T10:00:23.611Z,27.43
2022-11-28T10:03:21.888Z,28.87
2022-11-28T10:05:59.265Z,27.63
2022-11-28T10:08:39.515Z,28.00
2022-11-28T10:11:21.174Z,28.67
2022-11-28T10:14:07.759Z,28.03
2022-11-28T10:16:49.534Z,29.50
2022-11-28T10:19:52.224Z,26.07
2022-11-28T10:22:17.167Z,26.77
2022-11-28T10:24:50.133Z,29.00
2022-11-28T10:27:25.510Z,27.80
2022-11-28T10:30:02.731Z,30.03
2022-11-28T10:32:38.112Z,26.60
2022-11-28T10:35:08.976Z,27.90
2022-11-28T10:37:40.138Z,25.30
2022-11-28T10:40:24.529Z,31.00
2022-11-28T10:43:00.388Z,34.23
2022-11-28T10:45:36.504Z,33.17
2022-11-28T10:48:38.946Z,29.73
2022-11-28T10:51:19.478Z,32.27
2022-11-28T10:53:54.941Z,27.70
2022-11-28T10:56:35.793Z,26.63
2022-11-28T10:59:15.380Z,25.80
2022-11-28T11:01:49.800Z,34.90
2022-11-28T11:04:21.788Z,27.07
2022-11-28T11:07:16.260Z,28.57
2022-11-28T11:09:47.169Z,24.80
2022-11-28T11:12:22.593Z,24.53
2022-11-28T11:14:52.780Z,27.43
2022-11-28T11:17:36.464Z,26.60
2022-11-28T11:20:35.151Z,30.27
2022-11-28T11:23:14.415Z,28.53
2022-11-28T11:25:50.930Z,31.97
2022-11-28T11:28:42.452Z,30.57
2022-11-28T11:31:29.503Z,31.73
2022-11-28T11:34:04.674Z,31.50
2022-11-28T11:36:34.401Z,26.27
2022-11-28T11:39:24.026Z,26.27
2022-11-28T11:42:10.885Z,23.63
2022-11-28T11:44:39.680Z,25.93
2022-11-28T11:47:11.036Z,22.80
2022-11-28T11:49:42.025Z,24.43
2022-11-28T11:52:19.196Z,28.37
2022-11-28T11:54:59.289Z,24.33
2022-11-28T11:57:33.903Z,23.73
2022-11-28T12:00:08.362Z,25.10
2022-11-28T12:02:42.880Z,26.27
2022-11-28T12:05:15.109Z,28.83
2022-11-28T12:07:53.650Z,25.80
2022-11-28T12:10:26.654Z,27.33
2022-11-28T12:12:56.002Z,27.23
2022-11-28T12:15:32.576Z,23.03
2022-11-28T12:18:16.650Z,26.90
2022-11-28T12:20:57.178Z,26.03
2022-11-28T12:23:44.721Z,24.90
2022-11-28T12:26:22.192Z,25.83
2022-11-28T12:29:09.349Z,24.63
2022-11-28T12:31:48.294Z,21.10
2022-11-28T12:34:29.338Z,20.73
2022-11-28T12:37:06.934Z,21.57
2022-11-28T12:39:42.432Z,23.57
2022-11-28T12:42:28.774Z,22.57
2022-11-28T12:45:19.318Z,20.93
2022-11-28T12:47:59.140Z,20.40
2022-11-28T12:50:34.974Z,22.07
2022-11-28T12:53:25.777Z,17.27
2022-11-28T12:56:04.888Z,18.87
2022-11-28T12:58:39.580Z,19.10
2022-11-28T13:01:25.903Z,21.00
2022-11-28T13:04:04.885Z,19.37
2022-11-28T13:06:43.228Z,19.97
2022-11-28T13:09:28.663Z,21.80
2022-11-28T13:12:11.459Z,19.30
2022-11-28T13:14:49.128Z,19.67
2022-11-28T13:17:33.200Z,19.80
2022-11-28T13:20:12.773Z,20.97
2022-11-28T13:22:54.641Z,19.93
2022-11-28T13:25:30.193Z,22.87
2022-11-28T13:28:08.426Z,20.93
2022-11-28T13:30:45.283Z,24.87
2022-11-28T13:33:38.944Z,26.07
2022-11-28T13:38:35.255Z,23.87
2022-11-28T13:39:14.093Z,22.63
2022-11-28T13:42:21.325Z,25.17
2022-11-28T13:44:45.226Z,24.80
2022-11-28T13:47:29.806Z,28.17
2022-11-28T13:50:36.363Z,24.93
2022-11-28T13:53:21.720Z,27.10
2022-11-28T13:55:53.396Z,29.20
2022-11-28T13:58:25.577Z,26.13
2022-11-28T14:01:09.442Z,29.83
2022-11-28T14:03:48.115Z,26.67
2022-11-28T14:06:20.765Z,28.00
2022-11-28T14:09:06.029Z,26.07
2022-11-28T14:12:04.126Z,25.23
2022-11-28T14:15:06.594Z,27.07
2022-11-28T14:17:52.250Z,28.90
2022-11-28T14:20:29.009Z,31.73
2022-11-28T14:23:15.839Z,28.40
2022-11-28T14:25:47.052Z,32.17
2022-11-28T14:28:25.789Z,29.53
2022-11-28T14:31:06.115Z,28.47
2022-11-28T14:33:38.169Z,29.50
2022-11-28T14:36:24.502Z,33.17
2022-11-28T14:39:08.952Z,29.43
2022-11-28T14:42:11.324Z,30.67
2022-11-28T14:44:50.768Z,34.97
2022-11-28T14:47:28.723Z,32.53
2022-11-28T14:50:29.442Z,31.83
2022-11-28T14:53:43.925Z,38.80
2022-11-28T14:56:24.523Z,34.47
2022-11-28T14:58:59.522Z,34.20
2022-11-28T15:01:42.763Z,37.53
2022-11-28T15:04:35.221Z,32.23
2022-11-28T15:07:05.364Z,29.83
2022-11-28T15:09:42.784Z,30.60
2022-11-28T15:12:22.843Z,33.80
2022-11-28T15:14:56.631Z,33.97
2022-11-28T15:17:31.361Z,36.60
2022-11-28T15:20:03.705Z,34.00
2022-11-28T15:22:39.749Z,35.20
2022-11-28T15:25:20.990Z,37.10
2022-11-28T15:27:49.996Z,34.27
2022-11-28T15:30:22.002Z,37.37
2022-11-28T15:32:54.363Z,34.03
2022-11-28T15:35:23.198Z,33.77
2022-11-28T15:37:54.958Z,34.67
2022-11-28T15:40:28.394Z,35.30
2022-11-28T15:43:01.136Z,37.47
2022-11-28T15:45:31.772Z,36.57
2022-11-28T15:48:05.182Z,36.20
2022-11-28T15:50:35.586Z,34.50
2022-11-28T15:53:16.435Z,37.73
2022-11-28T15:55:46.176Z,36.63
2022-11-28T15:58:21.144Z,39.80
2022-11-28T16:00:56.024Z,35.50
2022-11-28T16:03:30.510Z,39.47
2022-11-28T16:06:00.393Z,39.50
2022-11-28T16:08:31.698Z,31.90
2022-11-28T16:11:02.540Z,32.73
2022-11-28T16:13:32.757Z,37.07
2022-11-28T16:16:04.572Z,34.27
2022-11-28T16:18:37.704Z,33.30
2022-11-28T16:21:06.676Z,36.13
2022-11-28T16:23:38.069Z,37.43
2022-11-28T16:26:08.748Z,37.57
2022-11-28T16:28:39.637Z,37.23
2022-11-28T16:31:24.173Z,35.73
2022-11-28T16:33:54.109Z,39.37
2022-11-28T16:36:25.970Z,36.80
2022-11-28T16:39:06.028Z,37.13
2022-11-28T16:41:37.776Z,40.13
2022-11-28T16:44:08.407Z,38.90
2022-11-28T16:46:40.660Z,36.63
2022-11-28T16:49:33.429Z,35.77
2022-11-28T16:52:43.989Z,36.47
2022-11-28T16:55:46.509Z,36.20
2022-11-28T16:58:18.239Z,37.53
2022-11-28T17:00:52.019Z,41.63
2022-11-28T17:03:45.758Z,45.10
2022-11-28T17:06:22.272Z,41.07
2022-11-28T17:08:51.790Z,41.60
2022-11-28T17:11:24.230Z,38.40
2022-11-28T17:13:55.084Z,42.83
2022-11-28T17:16:28.516Z,40.30
2022-11-28T17:18:57.237Z,41.83
2022-11-28T17:21:35.037Z,43.80
2022-11-28T17:24:04.016Z,42.93
2022-11-28T17:26:32.651Z,47.20
2022-11-28T17:29:01.378Z,48.33
2022-11-28T17:31:30.043Z,46.87
2022-11-28T17:33:58.790Z,48.40
2022-11-28T17:36:29.417Z,45.87
2022-11-28T17:39:03.708Z,42.80
2022-11-28T17:41:34.089Z,48.67
2022-11-28T17:44:02.875Z,50.03
2022-11-28T17:46:31.378Z,48.60
2022-11-28T17:49:00.186Z,47.00
2022-11-28T17:51:30.208Z,46.10
2022-11-28T17:53:59.091Z,46.40
2022-11-28T17:56:27.477Z,45.43
2022-11-28T17:58:55.969Z,50.57
2022-11-28T18:01:28.741Z,46.00
2022-11-28T18:03:57.203Z,45.90
2022-11-28T18:06:25.640Z,51.07
2022-11-28T18:08:55.554Z,49.50
2022-11-28T18:11:24.004Z,53.20
2022-11-28T18:13:52.527Z,52.33
2022-11-28T18:16:23.127Z,56.83
2022-11-28T18:18:55.315Z,48.87
2022-11-28T18:21:23.853Z,51.00
2022-11-28T18:23:52.488Z,50.50
2022-11-28T18:26:25.131Z,59.80
2022-11-28T18:28:54.156Z,47.90
2022-11-28T18:31:25.043Z,66.47
2022-11-28T18:34:00.237Z,55.70
2022-11-28T18:36:31.829Z,47.73
2022-11-28T18:39:04.723Z,50.87
2022-11-28T18:41:34.833Z,58.47
2022-11-28T18:44:05.163Z,58.27
2022-11-28T18:46:34.948Z,52.83
2022-11-28T18:49:03.493Z,53.80
2022-11-28T18:51:33.710Z,56.37
2022-11-28T18:54:04.926Z,58.30
2022-11-28T18:56:35.159Z,57.27
2022-11-28T18:59:04.671Z,59.93
2022-11-28T19:01:35.919Z,62.97
2022-11-28T19:04:07.038Z,63.50
2022-11-28T19:06:37.314Z,60.90
2022-11-28T19:09:08.108Z,55.50
2022-11-28T19:11:37.966Z,54.33
2022-11-28T19:14:08.011Z,58.13
2022-11-28T19:16:38.915Z,57.83
2022-11-28T19:19:11.249Z,57.03
2022-11-28T19:21:41.029Z,54.60
2022-11-28T19:24:12.019Z,59.07
2022-11-28T19:26:42.403Z,60.67
2022-11-28T19:29:10.740Z,62.20
2022-11-28T19:31:40.328Z,60.27
2022-11-28T19:34:12.092Z,57.17
2022-11-28T19:36:42.844Z,68.40
2022-11-28T19:39:18.160Z,59.83
2022-11-28T19:41:48.969Z,55.80
2022-11-28T19:44:17.538Z,61.70
2022-11-28T19:46:46.219Z,51.60
2022-11-28T19:49:19.469Z,59.17
2022-11-28T19:51:49.943Z,55.23
2022-11-28T19:54:21.473Z,58.80
2022-11-28T19:56:51.860Z,54.47
2022-11-28T19:59:20.663Z,55.07
2022-11-28T20:01:50.054Z,54.37
2022-11-28T20:04:19.717Z,58.27
2022-11-28T20:06:54.003Z,58.67
2022-11-28T20:09:22.842Z,54.40
2022-11-28T20:11:52.737Z,54.97
2022-11-28T20:14:21.180Z,51.07
2022-11-28T20:16:49.650Z,53.57
2022-11-28T20:19:18.475Z,52.10
2022-11-28T20:21:47.245Z,57.50
2022-11-28T20:24:16.244Z,48.87
2022-11-28T20:26:45.773Z,51.07
2022-11-28T20:29:17.632Z,51.53
2022-11-28T20:31:47.829Z,54.20
2022-11-28T20:34:17.711Z,52.87
2022-11-28T20:36:46.401Z,54.43
2022-11-28T20:39:14.936Z,52.27
2022-11-28T20:41:43.300Z,47.70
2022-11-28T20:44:12.677Z,52.63
2022-11-28T20:46:44.172Z,52.33
2022-11-28T20:49:12.585Z,49.93
2022-11-28T20:51:41.217Z,57.50
2022-11-28T20:54:09.825Z,46.20
2022-11-28T20:59:29.137Z,44.97
2022-11-28T21:01:59.079Z,47.87
2022-11-28T21:04:27.707Z,49.17
2022-11-28T21:06:56.159Z,48.83
2022-11-28T21:09:25.591Z,51.87
2022-11-28T21:11:59.143Z,48.80
2022-11-28T21:14:29.144Z,49.03
2022-11-28T21:17:01.480Z,49.80
2022-11-28T21:19:32.006Z,45.77
2022-11-28T21:22:00.414Z,48.37
2022-11-28T21:24:29.280Z,48.90
2022-11-28T21:26:57.777Z,52.87
2022-11-28T21:29:26.483Z,47.33
2022-11-28T21:31:55.576Z,46.83
2022-11-28T21:34:25.454Z,50.63
2022-11-28T21:36:59.715Z,53.77
2022-11-28T21:39:29.764Z,47.17
2022-11-28T21:41:58.126Z,47.43
2022-11-28T21:44:26.994Z,50.43
2022-11-28T21:46:55.763Z,49.57
2022-11-28T21:49:28.696Z,52.57
2022-11-28T21:51:57.129Z,51.07
2022-11-28T21:54:25.661Z,49.53
2022-11-28T21:56:54.150Z,47.37
2022-11-28T21:59:23.241Z,44.07
2022-11-28T22:01:51.957Z,52.80
2022-11-28T22:04:24.776Z,48.37
2022-11-28T22:06:54.697Z,45.30
2022-11-28T22:09:23.006Z,47.87
2022-11-28T22:11:51.452Z,48.50
2022-11-28T22:14:19.797Z,42.87
2022-11-28T22:16:48.211Z,45.27
2022-11-28T22:19:16.675Z,48.80
2022-11-28T22:21:53.471Z,46.67
2022-11-28T22:24:27.294Z,41.63
2022-11-28T22:26:56.144Z,45.97
2022-11-28T22:29:24.791Z,46.57
2022-11-28T22:31:53.334Z,46.53
2022-11-28T22:34:22.206Z,48.47
2022-11-28T22:36:50.564Z,50.37
2022-11-28T22:39:19.185Z,47.47
2022-11-28T22:41:48.995Z,48.03
2022-11-28T22:44:18.334Z,47.17
2022-11-28T22:46:46.856Z,46.00
2022-11-28T22:49:15.300Z,47.07
2022-11-28T22:51:43.719Z,47.80
2022-11-28T22:54:14.350Z,42.23
2022-11-28T22:56:44.131Z,51.17
2022-11-28T22:59:16.412Z,48.00
2022-11-28T23:01:44.912Z,46.67
2022-11-28T23:04:13.609Z,45.20
2022-11-28T23:06:42.211Z,44.50
2022-11-28T23:09:13.255Z,45.23
2022-11-28T23:11:41.949Z,48.37
2022-11-28T23:14:15.401Z,46.63
2022-11-28T23:16:45.441Z,47.83
2022-11-28T23:19:16.706Z,43.67
2022-11-28T23:21:47.869Z,42.73
2022-11-28T23:24:18.491Z,47.13
2022-11-28T23:26:47.512Z,48.17
2022-11-28T23:29:18.169Z,46.67
2022-11-28T23:31:47.719Z,43.77
2022-11-28T23:34:16.938Z,47.60
2022-11-28T23:36:47.091Z,43.93
2022-11-28T23:39:17.591Z,45.50
2022-11-28T23:41:46.980Z,44.43
2022-11-28T23:44:19.733Z,44.50
2022-11-28T23:46:49.364Z,46.87
2022-11-28T23:49:18.103Z,50.90
